Pagina principală
METAR-TAF:

METAR-TAF

Aeroporturi :

Aeroportul Internațional Craiova

Craiova, România

Latitudine: 44-14N, longitudine: 023-52E, elevație: 192 m

Observații meteo curente

Raportul a fost făcut în urmă cu 48 de minute, la 04:30 UTC
Vânt 6 kt de la Vest
Temperatură 16°C
Umiditate 48%
Presiune 1006 hPa
Vizibilitate de 10 km sau mai mult
nu există nori sub 1.500 m și nici cumulonimbus

METAR: LRCV 160430Z 26006KT CAVOK 16/05 Q1006

Ora: 08:18 (05:18 UTC)

Prognoză

Raportul a fost făcut în urmă cu 3 ore și 18 de minute, la 02:00 UTC
Prognoză valabilă de la 16 ora 03 UTC la 16 ora 12 UTC
Vânt 10 kt de la Vest
Vizibilitate de 10 km sau mai mult
nu există nori sub 1.500 m și nici cumulonimbus
Devenind
de la 16 ora 09 UTC la 16 ora 11 UTC
Vânt 14 kt de la Sud/Sud-vest

TAF: LRCV 160200Z 1603/1612 27010KT CAVOK BECMG 1609/1611 21014KT

Observații și prognoze meteo pentru peste 4.000 de aeroporturi (rapoarte METAR și TAF).

Stațiile disponibile sunt reprezentate pe hartă prin puncte galbene și roșii.

Țineți indicatorul mouse-ului pe punctul dorit pentru a vedea denumirea stației.

Apoi, faceți clic pentru a vedea observațiile și prognozele meteorologice.

Pentru a schimba harta: Pentru mărire, faceți clic pe butoanele verzi cu cruce neagră; pentru micșorare, pe butonul verde cu o liniuță; pentru hărți învecinate, pe săgețile verzi.


METAR-TAF: